createdAt,value
2022-10-19T04:16:54.758Z,101111.53
2022-10-19T04:19:21.206Z,101106.44
2022-10-19T04:21:49.059Z,101107.28
2022-10-19T04:24:18.315Z,101110.00
2022-10-19T04:26:48.120Z,101115.44
2022-10-19T04:29:19.849Z,101115.41
2022-10-19T04:31:49.367Z,101116.34
2022-10-19T04:34:16.998Z,101114.59
2022-10-19T04:36:58.206Z,101112.78
2022-10-19T04:39:25.228Z,101107.63
2022-10-19T04:41:54.656Z,101110.34
2022-10-19T04:44:26.620Z,101108.66
2022-10-19T04:46:58.526Z,101109.53
2022-10-19T04:49:32.569Z,101106.91
2022-10-19T04:52:00.428Z,101106.97
2022-10-19T04:54:37.858Z,101112.19
2022-10-19T04:57:10.102Z,101105.16
2022-10-19T04:59:36.727Z,101106.00
2022-10-19T05:02:03.565Z,101101.63
2022-10-19T05:04:32.853Z,101110.47
2022-10-19T05:07:05.499Z,101107.03
2022-10-19T05:09:32.141Z,101100.88
2022-10-19T05:11:59.708Z,101100.06
2022-10-19T05:14:29.390Z,101107.06
2022-10-19T05:17:41.033Z,101107.94
2022-10-19T05:20:08.556Z,101112.44
2022-10-19T05:22:50.033Z,101110.69
2022-10-19T05:25:16.931Z,101109.75
2022-10-19T05:27:51.254Z,101114.25
2022-10-19T05:30:28.303Z,101120.38
2022-10-19T05:33:02.712Z,101111.50
2022-10-19T05:35:29.677Z,101100.81
2022-10-19T05:37:56.403Z,101105.16
2022-10-19T05:40:32.477Z,101108.81
2022-10-19T05:43:05.447Z,101101.69
2022-10-19T05:45:53.721Z,101102.53
2022-10-19T05:48:35.483Z,101099.88
2022-10-19T05:51:09.122Z,101091.88
2022-10-19T05:56:17.826Z,101104.09
2022-10-19T05:58:47.903Z,101107.59
2022-10-19T06:01:33.390Z,101105.19
2022-10-19T06:04:08.641Z,101105.06
2022-10-19T06:06:39.119Z,101104.19
2022-10-19T06:09:13.556Z,101111.28
2022-10-19T06:11:49.357Z,101110.34
2022-10-19T06:14:25.478Z,101109.53
2022-10-19T06:16:56.491Z,101102.38
2022-10-19T06:19:29.811Z,101102.22
2022-10-19T06:22:19.539Z,101102.34
2022-10-19T06:24:56.150Z,101108.44
2022-10-19T06:27:26.281Z,101107.50
2022-10-19T06:29:55.922Z,101101.41
2022-10-19T06:32:29.328Z,101105.63
2022-10-19T06:35:17.964Z,101105.63
2022-10-19T06:37:48.189Z,101112.50
2022-10-19T06:40:29.097Z,101111.72
2022-10-19T06:43:11.463Z,101115.03
2022-10-19T06:45:49.366Z,101115.88
2022-10-19T06:48:25.308Z,101120.06
2022-10-19T06:51:05.901Z,101111.47
2022-10-19T06:53:36.086Z,101115.75
2022-10-19T06:56:13.786Z,101120.94
2022-10-19T06:58:43.768Z,101125.28
2022-10-19T07:01:22.130Z,101132.25
2022-10-19T07:03:58.155Z,101132.28
2022-10-19T07:06:35.732Z,101132.72
2022-10-19T07:09:02.882Z,101132.94
2022-10-19T07:11:29.475Z,101136.06
2022-10-19T07:13:57.374Z,101128.34
2022-10-19T07:16:26.211Z,101138.81
2022-10-19T07:18:53.564Z,101140.69
2022-10-19T07:21:25.521Z,101143.13
2022-10-19T07:23:55.092Z,101140.97
2022-10-19T07:26:28.270Z,101134.16
2022-10-19T07:28:58.297Z,101143.72
2022-10-19T07:31:26.806Z,101140.84
2022-10-19T07:33:56.785Z,101136.50
2022-10-19T07:36:24.860Z,101146.06
2022-10-19T07:38:53.110Z,101132.56
2022-10-19T07:41:22.325Z,101138.06
2022-10-19T07:43:50.592Z,101141.22
2022-10-19T07:46:20.238Z,101145.59
2022-10-19T07:48:47.609Z,101153.44
2022-10-19T07:51:19.124Z,101156.00
2022-10-19T07:53:49.679Z,101158.06
2022-10-19T07:56:31.427Z,101150.41
2022-10-19T07:59:00.452Z,101150.97
2022-10-19T08:01:36.602Z,101150.72
2022-10-19T08:06:55.301Z,101153.34
2022-10-19T08:09:54.647Z,101161.47
2022-10-19T08:12:15.626Z,101155.06
2022-10-19T08:14:45.610Z,101157.50
2022-10-19T08:17:16.794Z,101161.84
2022-10-19T08:19:44.940Z,101159.31
2022-10-19T08:22:13.842Z,101153.28
2022-10-19T08:24:40.720Z,101145.38
2022-10-19T08:27:07.910Z,101144.75
2022-10-19T08:29:35.580Z,101142.44
2022-10-19T08:32:04.013Z,101144.88
2022-10-19T08:34:32.100Z,101145.06
2022-10-19T08:37:15.004Z,101152.06
2022-10-19T08:39:52.867Z,101134.47
2022-10-19T08:42:36.202Z,101132.97
2022-10-19T08:45:20.700Z,101125.31
2022-10-19T08:48:10.350Z,101130.81
2022-10-19T08:50:44.024Z,101126.53
2022-10-19T08:53:22.593Z,101129.09
2022-10-19T08:56:32.539Z,101132.28
2022-10-19T08:59:20.308Z,101132.78
2022-10-19T09:01:54.435Z,101134.06
2022-10-19T09:04:36.763Z,101125.19
2022-10-19T09:07:23.699Z,101119.16
2022-10-19T09:10:13.503Z,101120.09
2022-10-19T09:13:24.981Z,101125.53
2022-10-19T09:15:56.053Z,101120.09
2022-10-19T09:18:30.966Z,101124.22
2022-10-19T09:21:22.683Z,101123.34
2022-10-19T09:24:09.308Z,101118.63
2022-10-19T09:26:52.941Z,101120.88
2022-10-19T09:29:49.627Z,101115.03
2022-10-19T09:32:35.904Z,101112.03
2022-10-19T09:35:18.950Z,101111.19
2022-10-19T09:37:51.378Z,101114.78
2022-10-19T09:40:28.046Z,101109.13
2022-10-19T09:43:03.634Z,101112.50
2022-10-19T09:45:45.674Z,101115.84
2022-10-19T09:48:22.075Z,101120.03
2022-10-19T09:51:18.601Z,101120.75
2022-10-19T09:53:56.695Z,101117.75
2022-10-19T09:56:28.135Z,101117.75
2022-10-19T09:59:01.120Z,101115.44
2022-10-19T10:02:17.629Z,101109.94
2022-10-19T10:04:58.750Z,101111.84
2022-10-19T10:07:40.679Z,101116.81
2022-10-19T10:10:20.489Z,101113.84
2022-10-19T10:13:01.672Z,101107.38
2022-10-19T10:15:39.802Z,101109.78
2022-10-19T10:18:08.671Z,101118.06
2022-10-19T10:20:35.911Z,101120.00
2022-10-19T10:23:08.276Z,101113.63
2022-10-19T10:25:39.197Z,101116.19
2022-10-19T10:28:19.956Z,101120.28
2022-10-19T10:30:55.934Z,101113.31
2022-10-19T10:34:12.128Z,101113.41
2022-10-19T10:36:53.619Z,101110.53
2022-10-19T10:39:25.047Z,101104.72
2022-10-19T10:41:52.543Z,101103.56
2022-10-19T10:44:23.380Z,101104.09
2022-10-19T10:47:06.057Z,101101.94
2022-10-19T10:49:43.448Z,101101.16
2022-10-19T10:52:16.361Z,101097.72
2022-10-19T10:55:09.089Z,101098.38
2022-10-19T10:57:46.154Z,101090.44
2022-10-19T11:00:19.651Z,101090.31
2022-10-19T11:02:50.501Z,101086.13
2022-10-19T11:05:29.332Z,101081.84
2022-10-19T11:08:05.915Z,101080.91
2022-10-19T11:10:46.440Z,101078.06
2022-10-19T11:13:34.926Z,101080.00
2022-10-19T11:16:18.847Z,101071.97
2022-10-19T11:18:54.048Z,101064.94
2022-10-19T11:21:39.595Z,101064.00
2022-10-19T11:25:11.365Z,101061.22
2022-10-19T11:28:04.399Z,101049.25
2022-10-19T11:30:43.908Z,101041.94
2022-10-19T11:33:37.434Z,101046.13
2022-10-19T11:36:18.618Z,101041.16
2022-10-19T11:39:01.820Z,101043.59
2022-10-19T11:41:41.477Z,101043.25
2022-10-19T11:44:48.254Z,101039.28
2022-10-19T11:47:21.495Z,101043.47
2022-10-19T11:52:51.069Z,101025.72
2022-10-19T11:55:37.721Z,101019.66
2022-10-19T11:58:23.383Z,101015.50
2022-10-19T12:01:25.350Z,101006.81
2022-10-19T12:04:11.423Z,101003.22
2022-10-19T12:07:05.728Z,100997.84
2022-10-19T12:09:37.098Z,100991.00
2022-10-19T12:12:18.220Z,100990.25
2022-10-19T12:14:51.990Z,100999.34
2022-10-19T12:17:32.969Z,100996.25
2022-10-19T12:20:14.884Z,100988.66
2022-10-19T12:22:46.496Z,100986.81
2022-10-19T12:25:17.789Z,100985.81
2022-10-19T12:27:47.881Z,100983.59
2022-10-19T12:30:28.583Z,100991.72
2022-10-19T12:33:25.397Z,100987.00
2022-10-19T12:36:18.091Z,100974.75
2022-10-19T12:38:50.937Z,100954.81
2022-10-19T12:41:31.412Z,100963.38
2022-10-19T12:44:29.751Z,100961.63
2022-10-19T12:47:10.219Z,100959.72
2022-10-19T12:49:48.926Z,100966.75
2022-10-19T12:52:49.020Z,100961.97
2022-10-19T12:55:15.710Z,100955.59
2022-10-19T12:57:58.146Z,100953.09
2022-10-19T13:00:29.056Z,100947.53
2022-10-19T13:03:24.974Z,100946.09
2022-10-19T13:06:20.663Z,100940.88
2022-10-19T13:09:01.499Z,100940.41
2022-10-19T13:11:31.108Z,100938.47
2022-10-19T13:14:45.747Z,100927.63
2022-10-19T13:17:49.990Z,100933.03
2022-10-19T13:20:24.912Z,100923.84
2022-10-19T13:23:12.103Z,100915.50
2022-10-19T13:25:45.536Z,100913.63
2022-10-19T13:28:15.560Z,100912.97
2022-10-19T13:30:54.615Z,100910.44
2022-10-19T13:33:31.181Z,100907.31
2022-10-19T13:36:05.796Z,100902.69
2022-10-19T13:38:50.571Z,100895.03
2022-10-19T13:41:25.696Z,100894.31
2022-10-19T13:43:58.333Z,100898.28
2022-10-19T13:50:28.272Z,100891.81
2022-10-19T13:53:16.655Z,100891.03
2022-10-19T13:56:15.199Z,100882.00
2022-10-19T13:59:02.845Z,100881.53
2022-10-19T14:02:02.390Z,100867.88
2022-10-19T14:04:59.754Z,100874.28
2022-10-19T14:07:38.682Z,100871.50
2022-10-19T14:10:17.544Z,100873.59
2022-10-19T14:12:46.201Z,100875.38
2022-10-19T14:15:28.102Z,100870.47
2022-10-19T14:17:56.181Z,100864.03
2022-10-19T14:21:21.040Z,100858.16
2022-10-19T14:26:19.562Z,100869.69
2022-10-19T14:28:53.231Z,100863.97
2022-10-19T14:31:49.730Z,100859.91
2022-10-19T14:34:19.231Z,100859.09
2022-10-19T14:36:56.905Z,100850.78
2022-10-19T14:39:32.286Z,100847.59
2022-10-19T14:42:09.946Z,100847.53
2022-10-19T14:45:12.138Z,100844.81
2022-10-19T14:47:59.550Z,100842.81
2022-10-19T14:50:43.098Z,100844.44
2022-10-19T14:53:22.804Z,100840.56
2022-10-19T14:55:58.807Z,100834.75
2022-10-19T14:58:36.379Z,100841.34
2022-10-19T15:01:06.771Z,100844.88
2022-10-19T15:03:33.942Z,100847.22
2022-10-19T15:06:04.333Z,100844.72
2022-10-19T15:08:40.200Z,100837.63
2022-10-19T15:11:09.556Z,100838.88
2022-10-19T15:13:42.310Z,100829.91
2022-10-19T15:16:42.025Z,100818.44
2022-10-19T15:19:24.208Z,100824.22
2022-10-19T15:22:38.120Z,100821.69
2022-10-19T15:25:07.307Z,100820.63
2022-10-19T15:27:36.764Z,100811.00
2022-10-19T15:30:22.521Z,100802.84
2022-10-19T15:33:02.587Z,100813.97
2022-10-19T15:35:30.315Z,100804.84
2022-10-19T15:38:15.465Z,100812.19
2022-10-19T15:40:44.082Z,100816.50
2022-10-19T15:43:33.626Z,100810.53
2022-10-19T15:46:05.128Z,100807.13
2022-10-19T15:48:41.136Z,100809.03
2022-10-19T15:51:26.228Z,100811.03
2022-10-19T15:54:04.847Z,100808.94
2022-10-19T15:56:34.995Z,100810.03
2022-10-19T15:59:04.369Z,100804.44
2022-10-19T16:01:35.305Z,100803.03
2022-10-19T16:04:08.878Z,100807.84
2022-10-19T16:06:40.940Z,100804.00
2022-10-19T16:09:14.291Z,100795.88
2022-10-19T16:11:57.549Z,100794.47
2022-10-19T16:14:28.431Z,100797.84
2022-10-19T16:16:55.809Z,100785.59
2022-10-19T16:19:45.824Z,100788.00
2022-10-19T16:22:16.094Z,100790.66
2022-10-19T16:24:42.938Z,100794.44
2022-10-19T16:27:09.472Z,100795.13
2022-10-19T16:29:35.965Z,100799.00
2022-10-19T16:32:02.518Z,100799.38
2022-10-19T16:34:29.077Z,100797.50
2022-10-19T16:36:55.543Z,100795.66
2022-10-19T16:39:22.206Z,100806.41
2022-10-19T16:41:52.244Z,100801.13
2022-10-19T16:44:18.684Z,100797.78
2022-10-19T16:46:45.214Z,100786.13
2022-10-19T16:49:11.663Z,100800.19
2022-10-19T16:51:41.788Z,100789.47
2022-10-19T16:54:10.775Z,100787.66
2022-10-19T16:56:44.602Z,100790.53
2022-10-19T16:59:13.107Z,100790.44
2022-10-19T17:01:40.670Z,100782.59
2022-10-19T17:04:07.191Z,100786.81
2022-10-19T17:06:34.216Z,100783.44
2022-10-19T17:11:47.179Z,100781.19
2022-10-19T17:14:13.762Z,100786.88
2022-10-19T17:16:40.568Z,100794.75
2022-10-19T17:19:08.335Z,100783.56
2022-10-19T17:21:39.745Z,100790.00
2022-10-19T17:24:08.355Z,100788.31
2022-10-19T17:26:38.548Z,100788.38
2022-10-19T17:29:06.404Z,100783.28
2022-10-19T17:31:33.136Z,100789.66
2022-10-19T17:34:00.722Z,100786.34
2022-10-19T17:36:30.180Z,100782.94
2022-10-19T17:39:02.054Z,100781.34
2022-10-19T17:41:29.208Z,100794.03
2022-10-19T17:43:56.768Z,100789.88
2022-10-19T17:46:26.530Z,100787.31
2022-10-19T17:48:53.774Z,100785.03
2022-10-19T17:51:32.400Z,100789.44
2022-10-19T17:54:11.458Z,100791.41
2022-10-19T17:56:54.340Z,100792.69
2022-10-19T17:59:30.176Z,100797.88
2022-10-19T18:02:02.394Z,100785.03
2022-10-19T18:04:28.954Z,100789.34
2022-10-19T18:06:58.743Z,100786.84
2022-10-19T18:09:25.320Z,100780.91
2022-10-19T18:11:51.776Z,100776.81
2022-10-19T18:15:14.171Z,100775.84
2022-10-19T18:17:40.724Z,100781.03
2022-10-19T18:20:07.995Z,100778.44
2022-10-19T18:22:34.653Z,100784.00
2022-10-19T18:25:01.475Z,100779.69
2022-10-19T18:27:28.202Z,100764.50
2022-10-19T18:29:54.628Z,100768.47
2022-10-19T18:32:21.118Z,100772.16
2022-10-19T18:34:47.700Z,100772.13
2022-10-19T18:37:14.134Z,100759.00
2022-10-19T18:39:40.740Z,100755.47
2022-10-19T18:42:07.196Z,100746.94
2022-10-19T18:44:33.910Z,100755.59
2022-10-19T18:47:00.434Z,100746.75
2022-10-19T18:49:27.022Z,100750.56
2022-10-19T18:51:55.565Z,100749.81
2022-10-19T18:54:29.060Z,100734.91
2022-10-19T18:56:55.625Z,100734.19
2022-10-19T18:59:22.749Z,100728.31
2022-10-19T19:01:49.320Z,100726.47
2022-10-19T19:04:15.821Z,100732.34
2022-10-19T19:06:42.409Z,100729.47
2022-10-19T19:09:11.450Z,100730.25
2022-10-19T19:11:40.700Z,100718.00
2022-10-19T19:14:12.077Z,100729.50
2022-10-19T19:16:39.482Z,100719.97
2022-10-19T19:19:06.322Z,100721.59
2022-10-19T19:21:36.291Z,100714.06
2022-10-19T19:24:05.903Z,100716.56
2022-10-19T19:26:37.663Z,100713.69
2022-10-19T19:29:04.510Z,100721.97
2022-10-19T19:31:31.495Z,100720.31
2022-10-19T19:34:00.960Z,100716.91
2022-10-19T19:36:27.985Z,100713.47
2022-10-19T19:38:56.564Z,100712.72
2022-10-19T19:41:23.105Z,100718.66
2022-10-19T19:43:51.701Z,100713.38
2022-10-19T19:51:37.369Z,100714.00
2022-10-19T19:54:11.174Z,100712.38
2022-10-19T19:56:39.205Z,100718.44
2022-10-19T19:59:05.729Z,100710.34
2022-10-19T20:01:32.880Z,100714.84
2022-10-19T20:06:30.967Z,100708.44
2022-10-19T20:08:57.615Z,100711.44
2022-10-19T20:11:43.832Z,100712.56
2022-10-19T20:14:11.608Z,100715.75
2022-10-19T20:16:38.141Z,100722.09
2022-10-19T20:19:10.858Z,100718.41
2022-10-19T20:21:38.133Z,100713.22
2022-10-19T20:24:05.080Z,100708.13
2022-10-19T20:26:32.052Z,100713.59
2022-10-19T20:28:58.806Z,100715.19
2022-10-19T20:31:25.597Z,100709.09
2022-10-19T20:33:52.252Z,100710.41
2022-10-19T20:36:21.623Z,100705.19
2022-10-19T20:38:56.539Z,100699.06
2022-10-19T20:41:26.118Z,100700.03
2022-10-19T20:43:53.828Z,100707.75
2022-10-19T20:46:24.005Z,100703.81
2022-10-19T20:48:51.405Z,100709.38
2022-10-19T20:51:20.822Z,100705.28
2022-10-19T20:53:50.521Z,100708.69
2022-10-19T20:56:21.584Z,100708.59
2022-10-19T20:58:50.217Z,100705.78
2022-10-19T21:01:18.585Z,100700.19
2022-10-19T21:03:47.239Z,100696.78
2022-10-19T21:06:14.038Z,100704.81
2022-10-19T21:08:40.701Z,100701.28
2022-10-19T21:11:19.659Z,100698.66
2022-10-19T21:13:47.326Z,100698.56
2022-10-19T21:16:16.101Z,100696.69
2022-10-19T21:18:43.797Z,100695.81
2022-10-19T21:21:22.533Z,100687.78
2022-10-19T21:23:54.044Z,100688.78
2022-10-19T21:26:20.601Z,100683.75
2022-10-19T21:28:48.671Z,100682.09
2022-10-19T21:31:16.769Z,100688.25
2022-10-19T21:33:43.853Z,100683.28
2022-10-19T21:36:11.517Z,100686.69
2022-10-19T21:38:38.438Z,100691.97
2022-10-19T21:41:11.867Z,100695.72
2022-10-19T21:43:38.350Z,100700.06
2022-10-19T21:46:07.216Z,100690.06
2022-10-19T21:48:34.351Z,100688.81
2022-10-19T21:51:12.824Z,100692.34
2022-10-19T21:53:39.246Z,100695.97
2022-10-19T21:56:05.909Z,100698.53
2022-10-19T21:58:32.362Z,100695.72
